createdAt,value
2022-10-31T00:01:37.598Z,100.00
2022-10-31T00:04:25.682Z,100.00
2022-10-31T00:07:13.797Z,100.00
2022-10-31T00:10:01.817Z,100.00
2022-10-31T00:12:49.842Z,100.00
2022-10-31T00:15:41.515Z,100.00
2022-10-31T00:18:29.675Z,100.00
2022-10-31T00:21:17.734Z,100.00
2022-10-31T00:24:06.516Z,100.00
2022-10-31T00:26:54.416Z,100.00
2022-10-31T00:29:42.449Z,100.00
2022-10-31T00:32:31.481Z,100.00
2022-10-31T00:35:19.261Z,100.00
2022-10-31T00:38:07.360Z,100.00
2022-10-31T00:40:55.541Z,100.00
2022-10-31T00:43:44.529Z,100.00
2022-10-31T00:46:32.674Z,100.00
2022-10-31T00:49:20.657Z,100.00
2022-10-31T00:52:08.854Z,100.00
2022-10-31T00:54:56.893Z,100.00
2022-10-31T00:57:48.787Z,100.00
2022-10-31T01:00:36.633Z,100.00
2022-10-31T01:03:27.925Z,100.00
2022-10-31T01:06:17.043Z,100.00
2022-10-31T01:09:05.239Z,100.00
2022-10-31T01:11:53.310Z,100.00
2022-10-31T01:14:47.250Z,100.00
2022-10-31T01:17:35.891Z,100.00
2022-10-31T01:20:23.813Z,100.00
2022-10-31T01:23:11.942Z,100.00
2022-10-31T01:26:07.602Z,100.00
2022-10-31T01:28:59.286Z,100.00
2022-10-31T01:31:47.321Z,100.00
2022-10-31T01:34:35.956Z,100.00
2022-10-31T01:37:24.102Z,100.00
2022-10-31T01:40:12.166Z,100.00
2022-10-31T01:43:00.411Z,100.00
2022-10-31T01:45:55.203Z,100.00
2022-10-31T01:48:43.547Z,100.00
2022-10-31T01:51:36.896Z,100.00
2022-10-31T01:54:38.920Z,100.00
2022-10-31T01:57:27.711Z,100.00
2022-10-31T02:00:16.322Z,100.00
2022-10-31T02:03:04.632Z,100.00
2022-10-31T02:05:56.080Z,100.00
2022-10-31T02:08:44.848Z,100.00
2022-10-31T02:11:34.402Z,100.00
2022-10-31T02:14:29.385Z,100.00
2022-10-31T02:17:17.669Z,100.00
2022-10-31T02:20:17.107Z,100.00
2022-10-31T02:23:33.509Z,100.00
2022-10-31T02:26:39.197Z,100.00
2022-10-31T02:29:51.278Z,100.00
2022-10-31T02:33:05.587Z,100.00
2022-10-31T02:36:25.854Z,100.00
2022-10-31T02:39:21.890Z,100.00
2022-10-31T02:42:41.063Z,100.00
2022-10-31T02:46:03.525Z,100.00
2022-10-31T02:48:56.459Z,100.00
2022-10-31T02:51:45.251Z,100.00
2022-10-31T02:54:33.572Z,100.00
2022-10-31T02:57:33.484Z,100.00
2022-10-31T03:00:21.688Z,100.00
2022-10-31T03:03:46.123Z,100.00
2022-10-31T03:06:58.120Z,100.00
2022-10-31T03:09:57.381Z,100.00
2022-10-31T03:13:10.810Z,100.00
2022-10-31T03:16:25.109Z,100.00
2022-10-31T03:19:20.738Z,100.00
2022-10-31T03:22:18.199Z,100.00
2022-10-31T03:25:07.188Z,100.00
2022-10-31T03:27:56.333Z,100.00
2022-10-31T03:30:46.721Z,100.00
2022-10-31T03:33:40.140Z,100.00
2022-10-31T03:36:31.174Z,100.00
2022-10-31T03:39:22.249Z,100.00
2022-10-31T03:42:19.799Z,100.00
2022-10-31T03:45:14.291Z,100.00
2022-10-31T03:48:02.945Z,100.00
2022-10-31T03:51:17.576Z,100.00
2022-10-31T03:54:47.656Z,100.00
2022-10-31T03:57:47.047Z,100.00
2022-10-31T04:00:41.985Z,100.00
2022-10-31T04:03:37.224Z,100.00
2022-10-31T04:06:26.341Z,100.00
2022-10-31T04:09:15.267Z,100.00
2022-10-31T04:12:09.970Z,100.00
2022-10-31T04:14:58.637Z,100.00
2022-10-31T04:17:50.737Z,100.00
2022-10-31T04:20:41.905Z,100.00
2022-10-31T04:23:30.652Z,100.00
2022-10-31T04:26:18.620Z,100.00
2022-10-31T04:29:06.628Z,100.00
2022-10-31T04:31:54.635Z,100.00
2022-10-31T04:34:42.622Z,100.00
2022-10-31T04:37:30.684Z,100.00
2022-10-31T04:40:18.755Z,100.00
2022-10-31T04:43:06.689Z,100.00
2022-10-31T04:45:55.018Z,100.00
2022-10-31T04:48:43.338Z,100.00
2022-10-31T04:51:33.841Z,100.00
2022-10-31T04:54:21.879Z,100.00
2022-10-31T04:57:12.898Z,100.00
2022-10-31T05:00:00.933Z,100.00
2022-10-31T05:02:57.579Z,100.00
2022-10-31T05:05:46.004Z,100.00
2022-10-31T05:08:34.096Z,100.00
2022-10-31T05:11:22.105Z,100.00
2022-10-31T05:14:10.099Z,100.00
2022-10-31T05:16:58.109Z,100.00
2022-10-31T05:19:46.254Z,100.00
2022-10-31T05:22:34.288Z,100.00
2022-10-31T05:25:27.816Z,100.00
2022-10-31T05:28:15.756Z,100.00
2022-10-31T05:31:04.114Z,100.00
2022-10-31T05:33:52.450Z,100.00
2022-10-31T05:36:40.434Z,100.00
2022-10-31T05:39:28.436Z,100.00
2022-10-31T05:42:16.334Z,100.00
2022-10-31T05:45:04.906Z,100.00
2022-10-31T05:48:01.740Z,100.00
2022-10-31T05:50:51.054Z,100.00
2022-10-31T05:53:39.229Z,100.00
2022-10-31T05:56:27.253Z,100.00
2022-10-31T05:59:15.186Z,100.00
2022-10-31T06:02:03.146Z,100.00
2022-10-31T06:40:25.564Z,100.00
2022-10-31T08:24:12.726Z,59.27
2022-10-31T08:46:31.857Z,64.05
2022-10-31T08:55:32.867Z,81.83
2022-10-31T08:59:02.356Z,81.61
2022-10-31T09:55:50.822Z,50.63
2022-10-31T12:07:34.990Z,44.83
2022-10-31T12:32:24.550Z,42.55
2022-10-31T13:52:59.242Z,52.07
2022-10-31T13:56:15.802Z,53.46
2022-10-31T13:59:34.454Z,54.07
2022-10-31T14:02:45.798Z,54.73
2022-10-31T14:05:56.437Z,55.20
2022-10-31T14:08:56.331Z,56.60
2022-10-31T14:12:40.593Z,59.01
2022-10-31T14:15:41.691Z,61.45
2022-10-31T14:20:25.844Z,63.67
2022-10-31T14:23:58.223Z,67.49
2022-10-31T14:41:16.542Z,72.30
2022-10-31T14:45:13.116Z,61.75
2022-10-31T14:51:14.181Z,63.07
2022-10-31T14:54:19.071Z,56.94
2022-10-31T14:57:59.510Z,53.87
2022-10-31T15:01:19.639Z,52.67
2022-10-31T15:04:37.533Z,53.91
2022-10-31T15:07:32.429Z,56.84
2022-10-31T15:10:43.498Z,59.05
2022-10-31T15:13:40.145Z,61.50
2022-10-31T15:28:35.677Z,69.51
2022-10-31T15:32:20.259Z,73.85
2022-10-31T15:35:27.162Z,77.12
2022-10-31T15:41:33.093Z,82.66
2022-10-31T15:44:31.738Z,80.73
2022-10-31T15:47:34.094Z,80.24
2022-10-31T15:50:48.054Z,79.11
2022-10-31T15:53:50.617Z,78.43
2022-10-31T15:56:39.431Z,80.72
2022-10-31T15:59:58.603Z,84.23
2022-10-31T16:02:46.851Z,84.30
2022-10-31T16:31:35.380Z,100.00
2022-10-31T16:34:33.700Z,100.00
2022-10-31T16:37:37.059Z,100.00
2022-10-31T16:40:26.473Z,100.00
2022-10-31T16:43:22.105Z,100.00
2022-10-31T16:46:38.331Z,100.00
2022-10-31T16:49:33.315Z,100.00
2022-10-31T16:52:21.659Z,100.00
2022-10-31T17:03:53.498Z,100.00
2022-10-31T17:11:22.734Z,100.00
2022-10-31T17:14:19.280Z,100.00
2022-10-31T17:17:09.290Z,100.00
2022-10-31T17:20:04.500Z,100.00
2022-10-31T17:23:24.246Z,100.00
2022-10-31T17:26:17.702Z,100.00
2022-10-31T17:29:19.047Z,100.00
2022-10-31T17:32:17.743Z,100.00
2022-10-31T17:37:49.260Z,100.00
2022-10-31T17:40:42.843Z,100.00
2022-10-31T17:44:07.339Z,100.00
2022-10-31T17:47:04.729Z,100.00
2022-10-31T17:49:55.791Z,100.00
2022-10-31T18:02:48.041Z,100.00
2022-10-31T18:05:39.746Z,100.00
2022-10-31T18:08:36.640Z,100.00
2022-10-31T18:11:29.123Z,100.00
2022-10-31T18:15:08.385Z,100.00
2022-10-31T18:46:24.395Z,100.00
2022-10-31T18:49:24.294Z,100.00
2022-10-31T18:52:51.999Z,100.00
2022-10-31T18:55:50.221Z,100.00
2022-10-31T18:58:45.746Z,100.00
2022-10-31T19:01:49.715Z,100.00
2022-10-31T19:07:36.110Z,100.00
2022-10-31T19:10:47.395Z,100.00
2022-10-31T19:14:17.776Z,100.00
2022-10-31T19:17:10.860Z,100.00
2022-10-31T19:20:26.121Z,100.00
2022-10-31T19:23:18.250Z,100.00
2022-10-31T19:29:50.191Z,100.00
2022-10-31T19:36:14.861Z,100.00
2022-10-31T19:39:15.712Z,100.00
2022-10-31T19:42:12.333Z,100.00
2022-10-31T19:45:10.345Z,100.00
2022-10-31T19:48:18.449Z,100.00
2022-10-31T19:51:25.575Z,100.00
2022-10-31T19:54:13.983Z,100.00
2022-10-31T19:57:06.466Z,100.00
2022-10-31T20:00:08.276Z,100.00
2022-10-31T20:03:06.970Z,100.00
2022-10-31T20:06:07.704Z,100.00
2022-10-31T20:09:07.607Z,100.00
2022-10-31T20:12:02.935Z,100.00
2022-10-31T20:14:56.699Z,100.00
2022-10-31T20:17:51.062Z,100.00
2022-10-31T20:21:03.683Z,100.00
2022-10-31T20:24:16.048Z,100.00
2022-10-31T20:27:11.258Z,100.00
2022-10-31T20:30:04.251Z,100.00
2022-10-31T20:32:54.985Z,100.00
2022-10-31T20:35:44.226Z,100.00
2022-10-31T20:38:39.072Z,100.00
2022-10-31T20:41:29.615Z,100.00
2022-10-31T20:44:26.693Z,100.00
2022-10-31T20:47:20.671Z,100.00
2022-10-31T20:50:17.262Z,100.00
2022-10-31T20:53:20.114Z,100.00
2022-10-31T20:56:19.640Z,100.00
2022-10-31T20:59:15.367Z,100.00
2022-10-31T21:02:10.189Z,100.00
2022-10-31T21:04:58.632Z,100.00
2022-10-31T21:07:47.779Z,100.00
2022-10-31T21:10:36.662Z,100.00
2022-10-31T21:13:32.518Z,100.00
2022-10-31T21:16:31.143Z,100.00
2022-10-31T21:19:31.577Z,100.00
2022-10-31T21:22:19.852Z,100.00
2022-10-31T21:25:08.856Z,100.00
2022-10-31T21:28:00.645Z,100.00
2022-10-31T21:30:51.996Z,100.00
2022-10-31T21:33:44.188Z,100.00
2022-10-31T21:36:36.912Z,100.00
2022-10-31T21:39:25.315Z,100.00
2022-10-31T21:42:18.934Z,100.00
2022-10-31T21:45:12.278Z,100.00
2022-10-31T21:48:03.106Z,100.00
2022-10-31T21:50:51.067Z,100.00
2022-10-31T21:54:01.306Z,100.00
2022-10-31T21:56:49.822Z,100.00
2022-10-31T21:59:45.871Z,100.00
2022-10-31T22:02:43.340Z,100.00
2022-10-31T22:05:31.782Z,100.00
2022-10-31T22:08:20.029Z,100.00
2022-10-31T22:11:13.884Z,100.00
2022-10-31T22:14:03.817Z,100.00
2022-10-31T22:16:52.009Z,100.00
2022-10-31T22:19:40.233Z,100.00
2022-10-31T22:22:28.238Z,100.00
2022-10-31T22:25:16.299Z,100.00
2022-10-31T22:28:08.111Z,100.00
2022-10-31T22:30:58.680Z,100.00
2022-10-31T22:33:48.137Z,100.00
2022-10-31T22:36:37.912Z,100.00
2022-10-31T22:39:25.921Z,100.00
2022-10-31T22:42:14.023Z,100.00
2022-10-31T22:45:02.909Z,100.00
2022-10-31T22:47:51.419Z,100.00
2022-10-31T22:50:39.636Z,100.00
2022-10-31T22:53:27.903Z,100.00
2022-10-31T22:56:20.579Z,100.00
2022-10-31T22:59:12.387Z,100.00
2022-10-31T23:02:00.752Z,100.00
2022-10-31T23:04:49.039Z,100.00
2022-10-31T23:07:37.162Z,100.00
2022-10-31T23:10:33.428Z,100.00
2022-10-31T23:13:43.002Z,100.00
2022-10-31T23:16:31.340Z,100.00
2022-10-31T23:19:33.323Z,100.00
2022-10-31T23:22:24.523Z,100.00
2022-10-31T23:25:12.632Z,100.00
2022-10-31T23:28:00.761Z,100.00
2022-10-31T23:30:49.113Z,100.00
2022-10-31T23:33:37.257Z,100.00
2022-10-31T23:36:28.464Z,100.00
2022-10-31T23:39:19.916Z,100.00
2022-10-31T23:42:11.156Z,100.00
2022-10-31T23:44:59.301Z,100.00
2022-10-31T23:47:47.596Z,100.00
2022-10-31T23:50:37.121Z,100.00
2022-10-31T23:53:25.249Z,100.00
2022-10-31T23:56:14.465Z,100.00
2022-10-31T23:59:03.006Z,100.00
